sensor_id;sensor_type;location;lat;lon;timestamp;temperature;humidity
610;DHT22;292;48.800;9.216;2024-03-02T00:00:49;10.00;78.70
610;DHT22;292;48.800;9.216;2024-03-02T00:03:17;10.00;78.70
610;DHT22;292;48.800;9.216;2024-03-02T00:05:49;10.00;78.70
610;DHT22;292;48.800;9.216;2024-03-02T00:08:22;10.00;78.70
610;DHT22;292;48.800;9.216;2024-03-02T00:10:49;10.00;78.60
610;DHT22;292;48.800;9.216;2024-03-02T00:13:20;10.00;78.60
610;DHT22;292;48.800;9.216;2024-03-02T00:15:51;10.00;78.30
610;DHT22;292;48.800;9.216;2024-03-02T00:18:19;10.00;78.10
610;DHT22;292;48.800;9.216;2024-03-02T00:20:47;10.00;78.10
610;DHT22;292;48.800;9.216;2024-03-02T00:23:15;10.00;77.80
610;DHT22;292;48.800;9.216;2024-03-02T00:25:46;9.90;77.70
610;DHT22;292;48.800;9.216;2024-03-02T00:28:17;9.90;77.50
610;DHT22;292;48.800;9.216;2024-03-02T00:30:55;9.90;77.50
610;DHT22;292;48.800;9.216;2024-03-02T00:33:23;9.90;77.40
610;DHT22;292;48.800;9.216;2024-03-02T00:35:49;9.80;77.40
610;DHT22;292;48.800;9.216;2024-03-02T00:38:16;9.80;77.40
610;DHT22;292;48.800;9.216;2024-03-02T00:40:46;9.80;77.50
610;DHT22;292;48.800;9.216;2024-03-02T00:43:34;9.80;77.50
610;DHT22;292;48.800;9.216;2024-03-02T00:46:04;9.80;77.40
610;DHT22;292;48.800;9.216;2024-03-02T00:48:31;9.80;77.10
610;DHT22;292;48.800;9.216;2024-03-02T00:51:01;9.80;77.00
610;DHT22;292;48.800;9.216;2024-03-02T00:53:29;9.70;76.80
610;DHT22;292;48.800;9.216;2024-03-02T00:55:59;9.70;76.80
610;DHT22;292;48.800;9.216;2024-03-02T00:58:27;9.70;77.00
610;DHT22;292;48.800;9.216;2024-03-02T01:00:54;9.60;77.00
610;DHT22;292;48.800;9.216;2024-03-02T01:03:21;9.60;77.10
610;DHT22;292;48.800;9.216;2024-03-02T01:05:48;9.60;77.10
610;DHT22;292;48.800;9.216;2024-03-02T01:08:15;9.60;77.10
610;DHT22;292;48.800;9.216;2024-03-02T01:10:44;9.60;77.10
610;DHT22;292;48.800;9.216;2024-03-02T01:13:14;9.60;77.10
610;DHT22;292;48.800;9.216;2024-03-02T01:15:41;9.60;77.30
610;DHT22;292;48.800;9.216;2024-03-02T01:18:08;9.60;77.10
610;DHT22;292;48.800;9.216;2024-03-02T01:20:35;9.60;77.10
610;DHT22;292;48.800;9.216;2024-03-02T01:23:05;9.60;77.10
610;DHT22;292;48.800;9.216;2024-03-02T01:25:32;9.60;77.30
610;DHT22;292;48.800;9.216;2024-03-02T01:27:59;9.60;77.30
610;DHT22;292;48.800;9.216;2024-03-02T01:30:28;9.60;77.30
610;DHT22;292;48.800;9.216;2024-03-02T01:32:55;9.60;77.30
610;DHT22;292;48.800;9.216;2024-03-02T01:35:21;9.60;77.30
610;DHT22;292;48.800;9.216;2024-03-02T01:37:48;9.60;77.10
610;DHT22;292;48.800;9.216;2024-03-02T01:40:16;9.60;77.10
610;DHT22;292;48.800;9.216;2024-03-02T01:42:43;9.60;77.10
610;DHT22;292;48.800;9.216;2024-03-02T01:45:10;9.60;77.10
610;DHT22;292;48.800;9.216;2024-03-02T01:47:39;9.50;77.10
610;DHT22;292;48.800;9.216;2024-03-02T01:50:07;9.50;77.30
610;DHT22;292;48.800;9.216;2024-03-02T01:52:37;9.50;77.30
610;DHT22;292;48.800;9.216;2024-03-02T01:55:05;9.50;77.30
610;DHT22;292;48.800;9.216;2024-03-02T01:57:33;9.60;77.30
610;DHT22;292;48.800;9.216;2024-03-02T02:00:00;9.50;77.10
610;DHT22;292;48.800;9.216;2024-03-02T02:02:28;9.50;77.10
610;DHT22;292;48.800;9.216;2024-03-02T02:04:57;9.50;77.30
610;DHT22;292;48.800;9.216;2024-03-02T02:07:24;9.50;77.10
610;DHT22;292;48.800;9.216;2024-03-02T02:09:52;9.40;77.10
610;DHT22;292;48.800;9.216;2024-03-02T02:12:19;9.40;77.30
610;DHT22;292;48.800;9.216;2024-03-02T02:14:49;9.40;77.10
610;DHT22;292;48.800;9.216;2024-03-02T02:17:16;9.30;77.30
610;DHT22;292;48.800;9.216;2024-03-02T02:19:43;9.30;77.30
610;DHT22;292;48.800;9.216;2024-03-02T02:22:12;9.30;77.30
610;DHT22;292;48.800;9.216;2024-03-02T02:24:40;9.30;77.40
610;DHT22;292;48.800;9.216;2024-03-02T02:27:07;9.30;77.40
610;DHT22;292;48.800;9.216;2024-03-02T02:29:34;9.20;77.50
610;DHT22;292;48.800;9.216;2024-03-02T02:32:01;9.20;77.70
610;DHT22;292;48.800;9.216;2024-03-02T02:34:29;9.20;77.50
610;DHT22;292;48.800;9.216;2024-03-02T02:36:56;9.10;77.70
610;DHT22;292;48.800;9.216;2024-03-02T02:39:24;9.10;77.80
610;DHT22;292;48.800;9.216;2024-03-02T02:41:51;9.10;77.80
610;DHT22;292;48.800;9.216;2024-03-02T02:44:18;9.10;78.00
610;DHT22;292;48.800;9.216;2024-03-02T02:46:45;9.10;78.00
610;DHT22;292;48.800;9.216;2024-03-02T02:49:12;9.00;78.10
610;DHT22;292;48.800;9.216;2024-03-02T02:51:39;9.00;78.10
610;DHT22;292;48.800;9.216;2024-03-02T02:54:06;9.00;78.10
610;DHT22;292;48.800;9.216;2024-03-02T02:56:35;9.00;78.10
610;DHT22;292;48.800;9.216;2024-03-02T02:59:02;9.00;78.30
610;DHT22;292;48.800;9.216;2024-03-02T03:01:29;8.90;78.40
610;DHT22;292;48.800;9.216;2024-03-02T03:03:56;8.90;78.60
610;DHT22;292;48.800;9.216;2024-03-02T03:06:23;8.80;78.60
610;DHT22;292;48.800;9.216;2024-03-02T03:08:49;8.80;78.60
610;DHT22;292;48.800;9.216;2024-03-02T03:11:16;8.70;78.80
610;DHT22;292;48.800;9.216;2024-03-02T03:13:45;8.70;78.80
610;DHT22;292;48.800;9.216;2024-03-02T03:16:12;8.70;79.00
610;DHT22;292;48.800;9.216;2024-03-02T03:18:39;8.70;79.00
610;DHT22;292;48.800;9.216;2024-03-02T03:21:06;8.60;79.00
610;DHT22;292;48.800;9.216;2024-03-02T03:23:33;8.60;79.30
610;DHT22;292;48.800;9.216;2024-03-02T03:26:00;8.60;79.00
610;DHT22;292;48.800;9.216;2024-03-02T03:28:27;8.60;79.00
610;DHT22;292;48.800;9.216;2024-03-02T03:30:55;8.50;79.30
610;DHT22;292;48.800;9.216;2024-03-02T03:33:22;8.50;79.10
610;DHT22;292;48.800;9.216;2024-03-02T03:35:49;8.40;79.30
610;DHT22;292;48.800;9.216;2024-03-02T03:38:16;8.40;79.30
610;DHT22;292;48.800;9.216;2024-03-02T03:40:43;8.40;79.30
610;DHT22;292;48.800;9.216;2024-03-02T03:43:10;8.30;79.30
610;DHT22;292;48.800;9.216;2024-03-02T03:45:37;8.30;79.30
610;DHT22;292;48.800;9.216;2024-03-02T03:48:06;8.20;79.40
610;DHT22;292;48.800;9.216;2024-03-02T03:50:33;8.20;79.60
610;DHT22;292;48.800;9.216;2024-03-02T03:53:00;8.20;79.70
610;DHT22;292;48.800;9.216;2024-03-02T03:55:27;8.10;79.70
610;DHT22;292;48.800;9.216;2024-03-02T03:57:54;8.10;79.70
610;DHT22;292;48.800;9.216;2024-03-02T04:00:21;8.10;79.90
610;DHT22;292;48.800;9.216;2024-03-02T04:02:48;8.10;80.10
610;DHT22;292;48.800;9.216;2024-03-02T04:05:16;8.10;80.30
610;DHT22;292;48.800;9.216;2024-03-02T04:07:43;8.00;80.30
610;DHT22;292;48.800;9.216;2024-03-02T04:10:10;8.00;80.40
610;DHT22;292;48.800;9.216;2024-03-02T04:12:38;8.00;80.40
610;DHT22;292;48.800;9.216;2024-03-02T04:15:06;8.00;80.60
610;DHT22;292;48.800;9.216;2024-03-02T04:17:33;8.00;80.60
610;DHT22;292;48.800;9.216;2024-03-02T04:20:02;8.00;80.60
610;DHT22;292;48.800;9.216;2024-03-02T04:22:33;8.00;80.40
610;DHT22;292;48.800;9.216;2024-03-02T04:25:01;8.00;80.40
610;DHT22;292;48.800;9.216;2024-03-02T04:27:27;7.90;80.40
610;DHT22;292;48.800;9.216;2024-03-02T04:29:54;7.90;80.60
610;DHT22;292;48.800;9.216;2024-03-02T04:32:20;7.90;80.70
610;DHT22;292;48.800;9.216;2024-03-02T04:34:48;7.90;80.70
610;DHT22;292;48.800;9.216;2024-03-02T04:37:15;7.80;80.90
610;DHT22;292;48.800;9.216;2024-03-02T04:39:43;7.80;81.00
610;DHT22;292;48.800;9.216;2024-03-02T04:42:10;7.80;80.90
610;DHT22;292;48.800;9.216;2024-03-02T04:44:37;7.80;81.00
610;DHT22;292;48.800;9.216;2024-03-02T04:47:04;7.80;81.00
610;DHT22;292;48.800;9.216;2024-03-02T04:49:31;7.80;81.00
610;DHT22;292;48.800;9.216;2024-03-02T04:51:58;7.80;81.00
610;DHT22;292;48.800;9.216;2024-03-02T04:54:25;7.80;81.00
610;DHT22;292;48.800;9.216;2024-03-02T04:56:54;7.80;81.00
610;DHT22;292;48.800;9.216;2024-03-02T04:59:21;7.80;80.90
610;DHT22;292;48.800;9.216;2024-03-02T05:01:48;7.70;81.00
610;DHT22;292;48.800;9.216;2024-03-02T05:04:15;7.70;81.20
610;DHT22;292;48.800;9.216;2024-03-02T05:06:41;7.70;81.20
610;DHT22;292;48.800;9.216;2024-03-02T05:09:08;7.70;81.40
610;DHT22;292;48.800;9.216;2024-03-02T05:11:36;7.70;81.40
610;DHT22;292;48.800;9.216;2024-03-02T05:14:26;7.70;81.40
610;DHT22;292;48.800;9.216;2024-03-02T05:16:52;7.70;81.60
610;DHT22;292;48.800;9.216;2024-03-02T05:19:19;7.70;81.60
610;DHT22;292;48.800;9.216;2024-03-02T05:21:46;7.70;81.60
610;DHT22;292;48.800;9.216;2024-03-02T05:24:14;7.70;81.70
610;DHT22;292;48.800;9.216;2024-03-02T05:26:41;7.70;81.60
610;DHT22;292;48.800;9.216;2024-03-02T05:29:08;7.80;81.60
610;DHT22;292;48.800;9.216;2024-03-02T05:31:36;7.80;81.40
610;DHT22;292;48.800;9.216;2024-03-02T05:34:05;7.80;81.30
610;DHT22;292;48.800;9.216;2024-03-02T05:36:32;7.70;81.20
610;DHT22;292;48.800;9.216;2024-03-02T05:38:59;7.70;81.20
610;DHT22;292;48.800;9.216;2024-03-02T05:41:27;7.70;81.00
610;DHT22;292;48.800;9.216;2024-03-02T05:43:54;7.70;80.90
610;DHT22;292;48.800;9.216;2024-03-02T05:46:20;7.70;80.90
610;DHT22;292;48.800;9.216;2024-03-02T05:48:49;7.60;80.60
610;DHT22;292;48.800;9.216;2024-03-02T05:51:16;7.60;80.70
610;DHT22;292;48.800;9.216;2024-03-02T05:53:43;7.50;80.70
610;DHT22;292;48.800;9.216;2024-03-02T05:56:10;7.50;80.70
610;DHT22;292;48.800;9.216;2024-03-02T05:58:37;7.50;80.70
610;DHT22;292;48.800;9.216;2024-03-02T06:01:15;7.40;81.00
610;DHT22;292;48.800;9.216;2024-03-02T06:03:43;7.30;81.00
610;DHT22;292;48.800;9.216;2024-03-02T06:06:12;7.30;81.30
610;DHT22;292;48.800;9.216;2024-03-02T06:08:39;7.30;81.30
610;DHT22;292;48.800;9.216;2024-03-02T06:11:06;7.20;81.60
610;DHT22;292;48.800;9.216;2024-03-02T06:13:33;7.20;81.70
610;DHT22;292;48.800;9.216;2024-03-02T06:16:00;7.20;81.90
610;DHT22;292;48.800;9.216;2024-03-02T06:18:26;7.20;82.10
610;DHT22;292;48.800;9.216;2024-03-02T06:20:54;7.20;82.20
610;DHT22;292;48.800;9.216;2024-03-02T06:23:22;7.20;82.20
610;DHT22;292;48.800;9.216;2024-03-02T06:25:50;7.20;82.20
610;DHT22;292;48.800;9.216;2024-03-02T06:28:17;7.20;82.20
610;DHT22;292;48.800;9.216;2024-03-02T06:30:44;7.20;82.20
610;DHT22;292;48.800;9.216;2024-03-02T06:33:11;7.10;82.40
610;DHT22;292;48.800;9.216;2024-03-02T06:35:38;7.20;82.50
610;DHT22;292;48.800;9.216;2024-03-02T06:38:06;7.20;82.60
610;DHT22;292;48.800;9.216;2024-03-02T06:40:34;7.20;82.60
610;DHT22;292;48.800;9.216;2024-03-02T06:43:03;7.30;82.60
610;DHT22;292;48.800;9.216;2024-03-02T06:45:30;7.30;82.20
610;DHT22;292;48.800;9.216;2024-03-02T06:47:59;7.20;82.20
610;DHT22;292;48.800;9.216;2024-03-02T06:50:26;7.20;82.40
610;DHT22;292;48.800;9.216;2024-03-02T06:52:54;7.20;82.60
610;DHT22;292;48.800;9.216;2024-03-02T06:55:21;7.20;82.80
610;DHT22;292;48.800;9.216;2024-03-02T06:57:51;7.30;82.80
610;DHT22;292;48.800;9.216;2024-03-02T07:00:19;7.30;82.60
610;DHT22;292;48.800;9.216;2024-03-02T07:02:47;7.30;82.60
610;DHT22;292;48.800;9.216;2024-03-02T07:05:14;7.30;82.80
610;DHT22;292;48.800;9.216;2024-03-02T07:07:41;7.40;82.80
610;DHT22;292;48.800;9.216;2024-03-02T07:10:08;7.40;82.80
610;DHT22;292;48.800;9.216;2024-03-02T07:12:35;7.30;82.80
610;DHT22;292;48.800;9.216;2024-03-02T07:15:04;7.40;82.90
610;DHT22;292;48.800;9.216;2024-03-02T07:17:50;7.40;83.10
610;DHT22;292;48.800;9.216;2024-03-02T07:20:17;7.40;82.90
610;DHT22;292;48.800;9.216;2024-03-02T07:22:44;7.50;83.10
610;DHT22;292;48.800;9.216;2024-03-02T07:25:11;7.50;83.10
610;DHT22;292;48.800;9.216;2024-03-02T07:27:38;7.50;82.90
610;DHT22;292;48.800;9.216;2024-03-02T07:30:08;7.50;82.90
610;DHT22;292;48.800;9.216;2024-03-02T07:32:37;7.60;82.90
610;DHT22;292;48.800;9.216;2024-03-02T07:35:05;7.60;83.10
610;DHT22;292;48.800;9.216;2024-03-02T07:37:33;7.70;83.10
610;DHT22;292;48.800;9.216;2024-03-02T07:40:00;7.70;83.10
610;DHT22;292;48.800;9.216;2024-03-02T07:42:28;7.80;82.90
610;DHT22;292;48.800;9.216;2024-03-02T07:44:55;7.90;82.80
610;DHT22;292;48.800;9.216;2024-03-02T07:47:24;8.00;82.60
610;DHT22;292;48.800;9.216;2024-03-02T07:49:51;8.10;82.50
610;DHT22;292;48.800;9.216;2024-03-02T07:52:18;8.10;82.40
610;DHT22;292;48.800;9.216;2024-03-02T07:54:45;8.20;82.20
610;DHT22;292;48.800;9.216;2024-03-02T07:57:12;8.30;82.00
610;DHT22;292;48.800;9.216;2024-03-02T07:59:39;8.30;81.60
610;DHT22;292;48.800;9.216;2024-03-02T08:02:06;8.40;81.40
610;DHT22;292;48.800;9.216;2024-03-02T08:04:35;8.40;81.20
610;DHT22;292;48.800;9.216;2024-03-02T08:07:02;8.50;81.00
610;DHT22;292;48.800;9.216;2024-03-02T08:09:29;8.60;80.70
610;DHT22;292;48.800;9.216;2024-03-02T08:11:56;8.60;80.30
610;DHT22;292;48.800;9.216;2024-03-02T08:14:24;8.70;80.10
610;DHT22;292;48.800;9.216;2024-03-02T08:16:51;8.70;79.90
610;DHT22;292;48.800;9.216;2024-03-02T08:19:18;8.80;79.60
610;DHT22;292;48.800;9.216;2024-03-02T08:21:47;8.80;79.40
610;DHT22;292;48.800;9.216;2024-03-02T08:24:14;8.90;79.10
610;DHT22;292;48.800;9.216;2024-03-02T08:26:41;8.90;78.80
610;DHT22;292;48.800;9.216;2024-03-02T08:29:08;8.90;78.40
610;DHT22;292;48.800;9.216;2024-03-02T08:31:35;9.00;78.10
610;DHT22;292;48.800;9.216;2024-03-02T08:34:02;9.00;78.00
610;DHT22;292;48.800;9.216;2024-03-02T08:36:29;9.10;78.00
610;DHT22;292;48.800;9.216;2024-03-02T08:38:57;9.20;77.80
610;DHT22;292;48.800;9.216;2024-03-02T08:41:24;9.40;77.70
610;DHT22;292;48.800;9.216;2024-03-02T08:43:51;9.60;77.00
610;DHT22;292;48.800;9.216;2024-03-02T08:46:18;9.80;76.70
610;DHT22;292;48.800;9.216;2024-03-02T08:48:45;9.90;76.40
610;DHT22;292;48.800;9.216;2024-03-02T08:51:12;10.20;75.80
610;DHT22;292;48.800;9.216;2024-03-02T08:53:39;10.40;75.40
610;DHT22;292;48.800;9.216;2024-03-02T08:56:09;10.70;74.50
610;DHT22;292;48.800;9.216;2024-03-02T08:58:38;11.00;73.80
610;DHT22;292;48.800;9.216;2024-03-02T09:01:05;11.20;73.10
610;DHT22;292;48.800;9.216;2024-03-02T09:03:33;11.50;72.20
610;DHT22;292;48.800;9.216;2024-03-02T09:06:01;11.70;71.20
610;DHT22;292;48.800;9.216;2024-03-02T09:08:27;12.00;70.30
610;DHT22;292;48.800;9.216;2024-03-02T09:10:55;12.20;69.20
610;DHT22;292;48.800;9.216;2024-03-02T09:13:23;12.50;68.00
610;DHT22;292;48.800;9.216;2024-03-02T09:15:50;12.70;66.90
610;DHT22;292;48.800;9.216;2024-03-02T09:18:18;12.90;66.20
610;DHT22;292;48.800;9.216;2024-03-02T09:20:45;13.20;65.30
610;DHT22;292;48.800;9.216;2024-03-02T09:23:12;13.50;64.60
610;DHT22;292;48.800;9.216;2024-03-02T09:25:41;13.80;63.30
610;DHT22;292;48.800;9.216;2024-03-02T09:28:08;14.10;62.30
610;DHT22;292;48.800;9.216;2024-03-02T09:30:36;14.30;61.20
610;DHT22;292;48.800;9.216;2024-03-02T09:33:04;14.50;60.70
610;DHT22;292;48.800;9.216;2024-03-02T09:35:31;14.60;59.80
610;DHT22;292;48.800;9.216;2024-03-02T09:37:58;14.60;59.30
610;DHT22;292;48.800;9.216;2024-03-02T09:40:25;14.60;58.90
610;DHT22;292;48.800;9.216;2024-03-02T09:42:54;14.60;58.50
610;DHT22;292;48.800;9.216;2024-03-02T09:45:23;14.60;58.50
610;DHT22;292;48.800;9.216;2024-03-02T09:47:52;14.60;58.10
610;DHT22;292;48.800;9.216;2024-03-02T09:50:19;14.60;58.00
610;DHT22;292;48.800;9.216;2024-03-02T09:52:48;14.60;57.60
610;DHT22;292;48.800;9.216;2024-03-02T09:55:16;14.50;57.30
610;DHT22;292;48.800;9.216;2024-03-02T09:57:45;14.40;57.20
610;DHT22;292;48.800;9.216;2024-03-02T10:00:13;14.40;57.20
610;DHT22;292;48.800;9.216;2024-03-02T10:02:40;14.30;56.90
610;DHT22;292;48.800;9.216;2024-03-02T10:05:09;14.20;57.00
610;DHT22;292;48.800;9.216;2024-03-02T10:07:37;14.20;56.80
610;DHT22;292;48.800;9.216;2024-03-02T10:10:13;14.10;56.80
610;DHT22;292;48.800;9.216;2024-03-02T10:12:40;14.10;56.90
610;DHT22;292;48.800;9.216;2024-03-02T10:15:08;14.10;57.20
610;DHT22;292;48.800;9.216;2024-03-02T10:17:35;14.10;57.20
610;DHT22;292;48.800;9.216;2024-03-02T10:20:25;14.10;57.30
610;DHT22;292;48.800;9.216;2024-03-02T10:22:54;14.20;57.00
610;DHT22;292;48.800;9.216;2024-03-02T10:25:31;14.20;57.20
610;DHT22;292;48.800;9.216;2024-03-02T10:27:59;14.30;57.00
610;DHT22;292;48.800;9.216;2024-03-02T10:30:26;14.30;56.90
610;DHT22;292;48.800;9.216;2024-03-02T10:32:53;14.40;56.80
610;DHT22;292;48.800;9.216;2024-03-02T10:35:22;14.50;56.40
610;DHT22;292;48.800;9.216;2024-03-02T10:37:53;14.60;56.10
610;DHT22;292;48.800;9.216;2024-03-02T10:40:22;14.60;56.10
610;DHT22;292;48.800;9.216;2024-03-02T10:42:50;14.60;56.00
610;DHT22;292;48.800;9.216;2024-03-02T10:45:19;14.70;55.80
610;DHT22;292;48.800;9.216;2024-03-02T10:47:48;14.70;55.80
610;DHT22;292;48.800;9.216;2024-03-02T10:50:14;14.80;55.70
610;DHT22;292;48.800;9.216;2024-03-02T10:52:41;14.90;55.70
610;DHT22;292;48.800;9.216;2024-03-02T10:55:10;15.00;55.60
610;DHT22;292;48.800;9.216;2024-03-02T10:57:41;15.00;55.40
610;DHT22;292;48.800;9.216;2024-03-02T11:00:12;15.10;55.30
610;DHT22;292;48.800;9.216;2024-03-02T11:02:49;15.30;55.20
610;DHT22;292;48.800;9.216;2024-03-02T11:05:27;15.40;54.60
610;DHT22;292;48.800;9.216;2024-03-02T11:08:00;15.60;54.40
610;DHT22;292;48.800;9.216;2024-03-02T11:10:35;15.60;54.10
610;DHT22;292;48.800;9.216;2024-03-02T11:13:05;15.80;54.10
610;DHT22;292;48.800;9.216;2024-03-02T11:15:35;15.90;53.70
610;DHT22;292;48.800;9.216;2024-03-02T11:18:04;16.10;53.60
610;DHT22;292;48.800;9.216;2024-03-02T11:20:35;16.20;53.20
610;DHT22;292;48.800;9.216;2024-03-02T11:23:05;16.40;52.90
610;DHT22;292;48.800;9.216;2024-03-02T11:25:34;16.60;52.60
610;DHT22;292;48.800;9.216;2024-03-02T11:28:02;16.90;52.20
610;DHT22;292;48.800;9.216;2024-03-02T11:30:48;17.10;51.80
610;DHT22;292;48.800;9.216;2024-03-02T11:33:23;17.40;51.30
610;DHT22;292;48.800;9.216;2024-03-02T11:35:52;17.60;50.50
610;DHT22;292;48.800;9.216;2024-03-02T11:38:20;17.80;49.70
610;DHT22;292;48.800;9.216;2024-03-02T11:40:49;18.10;49.00
610;DHT22;292;48.800;9.216;2024-03-02T11:43:17;18.40;47.80
610;DHT22;292;48.800;9.216;2024-03-02T11:45:44;18.60;47.00
610;DHT22;292;48.800;9.216;2024-03-02T11:48:13;18.80;46.20
610;DHT22;292;48.800;9.216;2024-03-02T11:50:41;19.00;45.60
610;DHT22;292;48.800;9.216;2024-03-02T11:53:10;19.20;44.80
610;DHT22;292;48.800;9.216;2024-03-02T11:55:39;19.40;44.00
610;DHT22;292;48.800;9.216;2024-03-02T11:58:08;19.50;43.20
610;DHT22;292;48.800;9.216;2024-03-02T12:00:35;19.70;42.50
610;DHT22;292;48.800;9.216;2024-03-02T12:03:04;19.90;41.40
610;DHT22;292;48.800;9.216;2024-03-02T12:05:34;20.00;40.40
610;DHT22;292;48.800;9.216;2024-03-02T12:08:03;20.00;39.30
610;DHT22;292;48.800;9.216;2024-03-02T12:10:33;20.00;39.40
610;DHT22;292;48.800;9.216;2024-03-02T12:13:02;20.00;39.30
610;DHT22;292;48.800;9.216;2024-03-02T12:15:32;19.90;39.60
610;DHT22;292;48.800;9.216;2024-03-02T12:18:00;19.90;39.70
610;DHT22;292;48.800;9.216;2024-03-02T12:20:29;19.90;39.60
610;DHT22;292;48.800;9.216;2024-03-02T12:22:58;19.90;39.70
610;DHT22;292;48.800;9.216;2024-03-02T12:25:26;20.00;39.80
610;DHT22;292;48.800;9.216;2024-03-02T12:27:54;20.10;39.70
610;DHT22;292;48.800;9.216;2024-03-02T12:30:22;20.20;38.90
610;DHT22;292;48.800;9.216;2024-03-02T12:32:51;20.30;38.90
610;DHT22;292;48.800;9.216;2024-03-02T12:35:18;20.30;38.60
610;DHT22;292;48.800;9.216;2024-03-02T12:37:47;20.30;38.20
610;DHT22;292;48.800;9.216;2024-03-02T12:40:15;20.30;38.20
610;DHT22;292;48.800;9.216;2024-03-02T12:42:44;20.30;38.60
610;DHT22;292;48.800;9.216;2024-03-02T12:45:12;20.30;38.10
610;DHT22;292;48.800;9.216;2024-03-02T12:47:40;20.40;37.30
610;DHT22;292;48.800;9.216;2024-03-02T12:50:09;20.40;36.90
610;DHT22;292;48.800;9.216;2024-03-02T12:52:36;20.40;36.90
610;DHT22;292;48.800;9.216;2024-03-02T12:55:05;20.40;36.90
610;DHT22;292;48.800;9.216;2024-03-02T12:57:33;20.40;36.80
610;DHT22;292;48.800;9.216;2024-03-02T13:00:01;20.30;36.90
610;DHT22;292;48.800;9.216;2024-03-02T13:02:34;20.30;37.00
610;DHT22;292;48.800;9.216;2024-03-02T13:05:02;20.40;36.60
610;DHT22;292;48.800;9.216;2024-03-02T13:07:31;20.40;36.50
610;DHT22;292;48.800;9.216;2024-03-02T13:09:59;20.40;36.00
610;DHT22;292;48.800;9.216;2024-03-02T13:12:27;20.40;35.80
610;DHT22;292;48.800;9.216;2024-03-02T13:14:54;20.40;35.60
610;DHT22;292;48.800;9.216;2024-03-02T13:17:21;20.40;35.70
610;DHT22;292;48.800;9.216;2024-03-02T13:19:52;20.40;35.60
610;DHT22;292;48.800;9.216;2024-03-02T13:22:19;20.40;35.80
610;DHT22;292;48.800;9.216;2024-03-02T13:24:48;20.40;36.10
610;DHT22;292;48.800;9.216;2024-03-02T13:27:15;20.40;35.80
610;DHT22;292;48.800;9.216;2024-03-02T13:29:45;20.50;35.80
610;DHT22;292;48.800;9.216;2024-03-02T13:32:12;20.50;35.70
610;DHT22;292;48.800;9.216;2024-03-02T13:34:39;20.50;35.60
610;DHT22;292;48.800;9.216;2024-03-02T13:37:07;20.60;35.40
610;DHT22;292;48.800;9.216;2024-03-02T13:39:33;20.60;35.20
610;DHT22;292;48.800;9.216;2024-03-02T13:42:07;20.60;34.90
610;DHT22;292;48.800;9.216;2024-03-02T13:44:34;20.50;35.00
610;DHT22;292;48.800;9.216;2024-03-02T13:47:02;20.50;35.20
610;DHT22;292;48.800;9.216;2024-03-02T13:49:30;20.50;35.20
610;DHT22;292;48.800;9.216;2024-03-02T13:52:03;20.60;35.00
610;DHT22;292;48.800;9.216;2024-03-02T13:54:37;20.60;35.00
610;DHT22;292;48.800;9.216;2024-03-02T13:57:06;20.60;34.80
610;DHT22;292;48.800;9.216;2024-03-02T13:59:34;20.60;34.80
610;DHT22;292;48.800;9.216;2024-03-02T14:02:01;20.60;34.90
610;DHT22;292;48.800;9.216;2024-03-02T14:04:30;20.60;34.90
610;DHT22;292;48.800;9.216;2024-03-02T14:06:57;20.60;34.80
610;DHT22;292;48.800;9.216;2024-03-02T14:09:24;20.60;34.50
610;DHT22;292;48.800;9.216;2024-03-02T14:11:51;20.60;34.60
610;DHT22;292;48.800;9.216;2024-03-02T14:14:20;20.60;34.90
610;DHT22;292;48.800;9.216;2024-03-02T14:16:47;20.60;35.00
610;DHT22;292;48.800;9.216;2024-03-02T14:19:14;20.60;34.90
610;DHT22;292;48.800;9.216;2024-03-02T14:21:41;20.60;34.90
610;DHT22;292;48.800;9.216;2024-03-02T14:24:08;20.70;34.60
610;DHT22;292;48.800;9.216;2024-03-02T14:26:36;20.70;34.40
610;DHT22;292;48.800;9.216;2024-03-02T14:29:03;20.70;34.40
610;DHT22;292;48.800;9.216;2024-03-02T14:31:32;20.70;34.40
610;DHT22;292;48.800;9.216;2024-03-02T14:33:59;20.70;34.50
610;DHT22;292;48.800;9.216;2024-03-02T14:36:26;20.70;34.50
610;DHT22;292;48.800;9.216;2024-03-02T14:38:54;20.70;34.40
610;DHT22;292;48.800;9.216;2024-03-02T14:41:21;20.60;34.00
610;DHT22;292;48.800;9.216;2024-03-02T14:43:49;20.50;34.00
610;DHT22;292;48.800;9.216;2024-03-02T14:46:17;20.50;33.80
610;DHT22;292;48.800;9.216;2024-03-02T14:48:46;20.40;33.80
610;DHT22;292;48.800;9.216;2024-03-02T14:51:13;20.30;33.80
610;DHT22;292;48.800;9.216;2024-03-02T14:53:40;20.30;33.80
610;DHT22;292;48.800;9.216;2024-03-02T14:56:12;20.20;34.00
610;DHT22;292;48.800;9.216;2024-03-02T14:58:39;20.10;33.80
610;DHT22;292;48.800;9.216;2024-03-02T15:01:06;20.00;33.70
610;DHT22;292;48.800;9.216;2024-03-02T15:03:35;19.90;33.60
610;DHT22;292;48.800;9.216;2024-03-02T15:06:04;19.80;33.70
610;DHT22;292;48.800;9.216;2024-03-02T15:08:33;19.80;33.40
610;DHT22;292;48.800;9.216;2024-03-02T15:11:00;19.80;33.20
610;DHT22;292;48.800;9.216;2024-03-02T15:13:27;19.70;32.90
610;DHT22;292;48.800;9.216;2024-03-02T15:15:54;19.60;32.90
610;DHT22;292;48.800;9.216;2024-03-02T15:18:21;19.50;32.90
610;DHT22;292;48.800;9.216;2024-03-02T15:20:49;19.40;32.90
610;DHT22;292;48.800;9.216;2024-03-02T15:23:18;19.30;33.30
610;DHT22;292;48.800;9.216;2024-03-02T15:25:45;19.20;33.60
610;DHT22;292;48.800;9.216;2024-03-02T15:28:12;19.10;33.80
610;DHT22;292;48.800;9.216;2024-03-02T15:30:39;19.10;34.10
610;DHT22;292;48.800;9.216;2024-03-02T15:33:07;18.90;34.10
610;DHT22;292;48.800;9.216;2024-03-02T15:35:34;18.80;34.40
610;DHT22;292;48.800;9.216;2024-03-02T15:38:01;18.70;34.50
610;DHT22;292;48.800;9.216;2024-03-02T15:40:29;18.60;34.40
610;DHT22;292;48.800;9.216;2024-03-02T15:42:56;18.50;34.40
610;DHT22;292;48.800;9.216;2024-03-02T15:45:23;18.40;34.40
610;DHT22;292;48.800;9.216;2024-03-02T15:47:51;18.30;34.80
610;DHT22;292;48.800;9.216;2024-03-02T15:50:18;18.20;35.20
610;DHT22;292;48.800;9.216;2024-03-02T15:52:45;18.10;35.60
610;DHT22;292;48.800;9.216;2024-03-02T15:55:12;18.00;35.80
610;DHT22;292;48.800;9.216;2024-03-02T15:57:41;17.90;36.10
610;DHT22;292;48.800;9.216;2024-03-02T16:00:09;17.90;36.50
610;DHT22;292;48.800;9.216;2024-03-02T16:02:36;17.80;36.90
610;DHT22;292;48.800;9.216;2024-03-02T16:05:03;17.70;37.30
610;DHT22;292;48.800;9.216;2024-03-02T16:07:32;17.60;37.80
610;DHT22;292;48.800;9.216;2024-03-02T16:09:59;17.60;38.40
610;DHT22;292;48.800;9.216;2024-03-02T16:12:30;17.50;38.60
610;DHT22;292;48.800;9.216;2024-03-02T16:14:58;17.40;39.30
610;DHT22;292;48.800;9.216;2024-03-02T16:17:25;17.30;39.60
610;DHT22;292;48.800;9.216;2024-03-02T16:19:52;17.20;39.70
610;DHT22;292;48.800;9.216;2024-03-02T16:22:20;17.20;40.00
610;DHT22;292;48.800;9.216;2024-03-02T16:24:46;17.10;40.20
610;DHT22;292;48.800;9.216;2024-03-02T16:27:13;17.10;40.20
610;DHT22;292;48.800;9.216;2024-03-02T16:29:43;17.00;40.40
610;DHT22;292;48.800;9.216;2024-03-02T16:32:13;17.00;40.60
610;DHT22;292;48.800;9.216;2024-03-02T16:34:40;16.90;40.90
610;DHT22;292;48.800;9.216;2024-03-02T16:37:07;16.90;41.20
610;DHT22;292;48.800;9.216;2024-03-02T16:39:34;16.80;41.40
610;DHT22;292;48.800;9.216;2024-03-02T16:42:02;16.80;41.80
610;DHT22;292;48.800;9.216;2024-03-02T16:44:29;16.70;42.10
610;DHT22;292;48.800;9.216;2024-03-02T16:46:56;16.70;42.60
610;DHT22;292;48.800;9.216;2024-03-02T16:49:24;16.60;42.80